sensor_id;sensor_type;location;lat;lon;timestamp;P1;durP1;ratioP1;P2;durP2;ratioP2
40204;SDS011;26963;42.666;23.366;2022-11-18T00:01:28;31.13;;;26.48;;
40204;SDS011;26963;42.666;23.366;2022-11-18T00:03:54;26.33;;;18.73;;
40204;SDS011;26963;42.666;23.366;2022-11-18T00:06:24;21.77;;;17.33;;
40204;SDS011;26963;42.666;23.366;2022-11-18T00:08:51;22.73;;;15.60;;
40204;SDS011;26963;42.666;23.366;2022-11-18T00:11:22;21.42;;;15.50;;
40204;SDS011;26963;42.666;23.366;2022-11-18T00:14:22;28.08;;;23.17;;
40204;SDS011;26963;42.666;23.366;2022-11-18T00:16:58;25.17;;;17.20;;
40204;SDS011;26963;42.666;23.366;2022-11-18T00:19:26;20.25;;;15.52;;
40204;SDS011;26963;42.666;23.366;2022-11-18T00:21:56;19.38;;;14.55;;
40204;SDS011;26963;42.666;23.366;2022-11-18T00:24:22;19.10;;;15.60;;
40204;SDS011;26963;42.666;23.366;2022-11-18T00:26:48;21.38;;;17.00;;
40204;SDS011;26963;42.666;23.366;2022-11-18T00:29:14;25.10;;;17.27;;
40204;SDS011;26963;42.666;23.366;2022-11-18T00:31:40;20.80;;;16.02;;
40204;SDS011;26963;42.666;23.366;2022-11-18T00:34:06;25.58;;;16.50;;
40204;SDS011;26963;42.666;23.366;2022-11-18T00:36:32;22.90;;;16.98;;
40204;SDS011;26963;42.666;23.366;2022-11-18T00:38:57;24.20;;;17.30;;
40204;SDS011;26963;42.666;23.366;2022-11-18T00:41:23;18.70;;;14.10;;
40204;SDS011;26963;42.666;23.366;2022-11-18T00:43:48;17.50;;;13.63;;
40204;SDS011;26963;42.666;23.366;2022-11-18T00:46:14;21.30;;;15.45;;
40204;SDS011;26963;42.666;23.366;2022-11-18T00:48:40;18.67;;;14.98;;
40204;SDS011;26963;42.666;23.366;2022-11-18T00:51:07;27.70;;;22.35;;
40204;SDS011;26963;42.666;23.366;2022-11-18T00:53:34;20.50;;;16.05;;
40204;SDS011;26963;42.666;23.366;2022-11-18T00:56:00;20.40;;;15.02;;
40204;SDS011;26963;42.666;23.366;2022-11-18T00:58:26;28.05;;;22.52;;
40204;SDS011;26963;42.666;23.366;2022-11-18T01:00:51;21.17;;;14.20;;
40204;SDS011;26963;42.666;23.366;2022-11-18T01:03:18;27.77;;;19.05;;
40204;SDS011;26963;42.666;23.366;2022-11-18T01:05:44;26.75;;;21.30;;
40204;SDS011;26963;42.666;23.366;2022-11-18T01:08:10;22.45;;;18.55;;
40204;SDS011;26963;42.666;23.366;2022-11-18T01:10:37;20.15;;;14.85;;
40204;SDS011;26963;42.666;23.366;2022-11-18T01:13:04;30.17;;;22.17;;
40204;SDS011;26963;42.666;23.366;2022-11-18T01:20:44;20.98;;;15.38;;
40204;SDS011;26963;42.666;23.366;2022-11-18T01:23:10;28.00;;;21.88;;
40204;SDS011;26963;42.666;23.366;2022-11-18T01:25:37;21.48;;;14.60;;
40204;SDS011;26963;42.666;23.366;2022-11-18T01:28:03;28.48;;;24.27;;
40204;SDS011;26963;42.666;23.366;2022-11-18T01:30:32;20.45;;;14.90;;
40204;SDS011;26963;42.666;23.366;2022-11-18T01:32:58;15.35;;;12.70;;
40204;SDS011;26963;42.666;23.366;2022-11-18T01:35:24;18.75;;;14.48;;
40204;SDS011;26963;42.666;23.366;2022-11-18T01:37:49;17.58;;;14.15;;
40204;SDS011;26963;42.666;23.366;2022-11-18T01:40:15;16.85;;;13.10;;
40204;SDS011;26963;42.666;23.366;2022-11-18T01:42:40;22.33;;;18.05;;
40204;SDS011;26963;42.666;23.366;2022-11-18T01:45:20;33.78;;;24.00;;
40204;SDS011;26963;42.666;23.366;2022-11-18T01:47:53;29.38;;;20.55;;
40204;SDS011;26963;42.666;23.366;2022-11-18T01:50:43;42.85;;;30.10;;
40204;SDS011;26963;42.666;23.366;2022-11-18T01:53:13;35.80;;;26.30;;
40204;SDS011;26963;42.666;23.366;2022-11-18T01:58:14;55.78;;;40.47;;
40204;SDS011;26963;42.666;23.366;2022-11-18T02:00:46;55.47;;;38.55;;
40204;SDS011;26963;42.666;23.366;2022-11-18T02:03:12;77.88;;;44.60;;
40204;SDS011;26963;42.666;23.366;2022-11-18T02:05:38;57.28;;;43.13;;
40204;SDS011;26963;42.666;23.366;2022-11-18T02:08:07;58.50;;;43.85;;
40204;SDS011;26963;42.666;23.366;2022-11-18T02:10:33;49.75;;;39.00;;
40204;SDS011;26963;42.666;23.366;2022-11-18T02:12:59;56.13;;;39.58;;
40204;SDS011;26963;42.666;23.366;2022-11-18T02:15:28;51.20;;;38.25;;
40204;SDS011;26963;42.666;23.366;2022-11-18T02:29:14;39.47;;;29.42;;
40204;SDS011;26963;42.666;23.366;2022-11-18T02:37:35;34.90;;;27.25;;
40204;SDS011;26963;42.666;23.366;2022-11-18T02:40:08;35.40;;;24.77;;
40204;SDS011;26963;42.666;23.366;2022-11-18T02:42:38;39.22;;;25.17;;
40204;SDS011;26963;42.666;23.366;2022-11-18T02:45:07;42.00;;;27.40;;
40204;SDS011;26963;42.666;23.366;2022-11-18T02:47:39;68.43;;;31.67;;
40204;SDS011;26963;42.666;23.366;2022-11-18T02:50:10;48.00;;;30.77;;
40204;SDS011;26963;42.666;23.366;2022-11-18T02:52:38;44.40;;;29.85;;
40204;SDS011;26963;42.666;23.366;2022-11-18T02:55:07;39.42;;;28.05;;
40204;SDS011;26963;42.666;23.366;2022-11-18T02:57:35;37.20;;;26.50;;
40204;SDS011;26963;42.666;23.366;2022-11-18T03:00:03;38.33;;;26.85;;
40204;SDS011;26963;42.666;23.366;2022-11-18T03:02:39;35.80;;;25.05;;
40204;SDS011;26963;42.666;23.366;2022-11-18T03:05:20;34.25;;;23.17;;
40204;SDS011;26963;42.666;23.366;2022-11-18T03:07:53;35.60;;;26.13;;
40204;SDS011;26963;42.666;23.366;2022-11-18T03:10:22;37.25;;;23.42;;
40204;SDS011;26963;42.666;23.366;2022-11-18T03:16:19;24.85;;;19.17;;
40204;SDS011;26963;42.666;23.366;2022-11-18T03:21:44;32.00;;;21.70;;
40204;SDS011;26963;42.666;23.366;2022-11-18T03:26:47;28.20;;;21.05;;
40204;SDS011;26963;42.666;23.366;2022-11-18T03:29:18;32.22;;;22.70;;
40204;SDS011;26963;42.666;23.366;2022-11-18T03:31:54;31.08;;;21.98;;
40204;SDS011;26963;42.666;23.366;2022-11-18T03:37:00;29.42;;;21.85;;
40204;SDS011;26963;42.666;23.366;2022-11-18T03:39:28;30.08;;;21.45;;
40204;SDS011;26963;42.666;23.366;2022-11-18T03:42:07;29.95;;;22.58;;
40204;SDS011;26963;42.666;23.366;2022-11-18T03:44:40;31.40;;;23.45;;
40204;SDS011;26963;42.666;23.366;2022-11-18T03:47:12;30.08;;;21.90;;
40204;SDS011;26963;42.666;23.366;2022-11-18T03:52:47;38.72;;;28.13;;
40204;SDS011;26963;42.666;23.366;2022-11-18T03:55:22;44.00;;;30.65;;
40204;SDS011;26963;42.666;23.366;2022-11-18T04:00:24;39.25;;;28.83;;
40204;SDS011;26963;42.666;23.366;2022-11-18T04:02:54;39.75;;;29.55;;
40204;SDS011;26963;42.666;23.366;2022-11-18T04:05:19;41.58;;;29.88;;
40204;SDS011;26963;42.666;23.366;2022-11-18T04:10:23;37.42;;;26.88;;
40204;SDS011;26963;42.666;23.366;2022-11-18T04:13:07;42.05;;;29.60;;
40204;SDS011;26963;42.666;23.366;2022-11-18T04:15:39;46.65;;;30.02;;
40204;SDS011;26963;42.666;23.366;2022-11-18T04:18:06;43.45;;;28.08;;
40204;SDS011;26963;42.666;23.366;2022-11-18T04:20:32;41.67;;;28.58;;
40204;SDS011;26963;42.666;23.366;2022-11-18T04:22:58;45.72;;;31.70;;
40204;SDS011;26963;42.666;23.366;2022-11-18T04:25:25;62.63;;;28.40;;
40204;SDS011;26963;42.666;23.366;2022-11-18T04:27:51;59.53;;;31.40;;
40204;SDS011;26963;42.666;23.366;2022-11-18T04:30:16;50.38;;;30.92;;
40204;SDS011;26963;42.666;23.366;2022-11-18T04:32:43;75.85;;;34.72;;
40204;SDS011;26963;42.666;23.366;2022-11-18T04:35:08;60.83;;;35.08;;
40204;SDS011;26963;42.666;23.366;2022-11-18T04:37:34;97.40;;;34.13;;
40204;SDS011;26963;42.666;23.366;2022-11-18T04:39:59;62.13;;;32.80;;
40204;SDS011;26963;42.666;23.366;2022-11-18T04:42:25;81.78;;;31.33;;
40204;SDS011;26963;42.666;23.366;2022-11-18T04:44:51;66.25;;;33.83;;
40204;SDS011;26963;42.666;23.366;2022-11-18T04:47:17;78.20;;;37.63;;
40204;SDS011;26963;42.666;23.366;2022-11-18T04:49:42;85.07;;;33.63;;
40204;SDS011;26963;42.666;23.366;2022-11-18T04:52:08;49.63;;;33.40;;
40204;SDS011;26963;42.666;23.366;2022-11-18T04:54:33;54.60;;;34.80;;
40204;SDS011;26963;42.666;23.366;2022-11-18T04:56:59;59.15;;;26.75;;
40204;SDS011;26963;42.666;23.366;2022-11-18T04:59:25;57.00;;;27.83;;
40204;SDS011;26963;42.666;23.366;2022-11-18T05:01:53;46.22;;;29.17;;
40204;SDS011;26963;42.666;23.366;2022-11-18T05:04:21;131.57;;;27.25;;
40204;SDS011;26963;42.666;23.366;2022-11-18T05:06:48;50.38;;;25.95;;
40204;SDS011;26963;42.666;23.366;2022-11-18T05:09:14;31.98;;;22.83;;
40204;SDS011;26963;42.666;23.366;2022-11-18T05:11:40;40.13;;;23.73;;
40204;SDS011;26963;42.666;23.366;2022-11-18T05:14:27;55.00;;;23.83;;
40204;SDS011;26963;42.666;23.366;2022-11-18T05:16:54;44.47;;;23.48;;
40204;SDS011;26963;42.666;23.366;2022-11-18T05:19:21;37.47;;;26.17;;
40204;SDS011;26963;42.666;23.366;2022-11-18T05:21:47;33.22;;;23.98;;
40204;SDS011;26963;42.666;23.366;2022-11-18T05:24:12;33.78;;;25.33;;
40204;SDS011;26963;42.666;23.366;2022-11-18T05:26:38;36.50;;;26.00;;
40204;SDS011;26963;42.666;23.366;2022-11-18T05:29:04;33.30;;;24.60;;
40204;SDS011;26963;42.666;23.366;2022-11-18T05:31:30;47.22;;;27.73;;
40204;SDS011;26963;42.666;23.366;2022-11-18T05:33:55;39.22;;;27.17;;
40204;SDS011;26963;42.666;23.366;2022-11-18T05:36:21;38.60;;;26.88;;
40204;SDS011;26963;42.666;23.366;2022-11-18T05:38:47;36.10;;;26.50;;
40204;SDS011;26963;42.666;23.366;2022-11-18T05:41:12;79.45;;;27.58;;
40204;SDS011;26963;42.666;23.366;2022-11-18T05:43:58;113.68;;;53.60;;
40204;SDS011;26963;42.666;23.366;2022-11-18T05:46:24;71.68;;;42.63;;
40204;SDS011;26963;42.666;23.366;2022-11-18T05:48:49;59.05;;;36.60;;
40204;SDS011;26963;42.666;23.366;2022-11-18T05:51:15;61.72;;;30.45;;
40204;SDS011;26963;42.666;23.366;2022-11-18T05:53:41;45.63;;;29.20;;
40204;SDS011;26963;42.666;23.366;2022-11-18T05:58:48;117.70;;;48.60;;
40204;SDS011;26963;42.666;23.366;2022-11-18T06:01:15;147.75;;;70.90;;
40204;SDS011;26963;42.666;23.366;2022-11-18T06:03:46;108.15;;;64.22;;
40204;SDS011;26963;42.666;23.366;2022-11-18T06:06:12;168.02;;;73.63;;
40204;SDS011;26963;42.666;23.366;2022-11-18T06:08:45;134.02;;;72.95;;
40204;SDS011;26963;42.666;23.366;2022-11-18T06:11:16;119.13;;;50.10;;
40204;SDS011;26963;42.666;23.366;2022-11-18T06:13:45;156.98;;;73.32;;
40204;SDS011;26963;42.666;23.366;2022-11-18T06:16:16;150.45;;;75.47;;
40204;SDS011;26963;42.666;23.366;2022-11-18T06:18:45;112.70;;;40.35;;
40204;SDS011;26963;42.666;23.366;2022-11-18T06:21:10;110.45;;;33.33;;
40204;SDS011;26963;42.666;23.366;2022-11-18T06:23:36;78.25;;;33.40;;
40204;SDS011;26963;42.666;23.366;2022-11-18T06:26:04;86.68;;;38.65;;
40204;SDS011;26963;42.666;23.366;2022-11-18T06:28:30;75.78;;;36.58;;
40204;SDS011;26963;42.666;23.366;2022-11-18T06:30:55;69.80;;;33.72;;
40204;SDS011;26963;42.666;23.366;2022-11-18T06:33:21;108.40;;;36.55;;
40204;SDS011;26963;42.666;23.366;2022-11-18T06:35:47;72.57;;;36.25;;
40204;SDS011;26963;42.666;23.366;2022-11-18T06:38:12;108.55;;;33.83;;
40204;SDS011;26963;42.666;23.366;2022-11-18T06:40:37;62.97;;;31.45;;
40204;SDS011;26963;42.666;23.366;2022-11-18T06:43:06;113.07;;;41.28;;
40204;SDS011;26963;42.666;23.366;2022-11-18T06:45:51;90.88;;;29.75;;
40204;SDS011;26963;42.666;23.366;2022-11-18T06:48:35;61.08;;;25.30;;
40204;SDS011;26963;42.666;23.366;2022-11-18T06:51:04;60.15;;;17.98;;
40204;SDS011;26963;42.666;23.366;2022-11-18T06:53:30;36.00;;;19.73;;
40204;SDS011;26963;42.666;23.366;2022-11-18T06:56:01;82.22;;;16.90;;
40204;SDS011;26963;42.666;23.366;2022-11-18T06:58:30;91.93;;;18.83;;
40204;SDS011;26963;42.666;23.366;2022-11-18T07:00:56;72.13;;;17.63;;
40204;SDS011;26963;42.666;23.366;2022-11-18T07:03:21;31.63;;;17.48;;
40204;SDS011;26963;42.666;23.366;2022-11-18T07:05:47;94.65;;;17.77;;
40204;SDS011;26963;42.666;23.366;2022-11-18T07:08:12;31.45;;;16.63;;
40204;SDS011;26963;42.666;23.366;2022-11-18T07:10:38;30.42;;;16.75;;
40204;SDS011;26963;42.666;23.366;2022-11-18T07:13:03;31.73;;;16.92;;
40204;SDS011;26963;42.666;23.366;2022-11-18T07:15:29;42.63;;;21.50;;
40204;SDS011;26963;42.666;23.366;2022-11-18T07:17:54;46.33;;;22.00;;
40204;SDS011;26963;42.666;23.366;2022-11-18T07:20:20;44.78;;;22.95;;
40204;SDS011;26963;42.666;23.366;2022-11-18T07:22:45;44.60;;;23.50;;
40204;SDS011;26963;42.666;23.366;2022-11-18T07:25:11;46.47;;;23.95;;
40204;SDS011;26963;42.666;23.366;2022-11-18T07:27:36;77.50;;;26.02;;
40204;SDS011;26963;42.666;23.366;2022-11-18T07:30:02;74.32;;;25.63;;
40204;SDS011;26963;42.666;23.366;2022-11-18T07:32:27;89.50;;;26.80;;
40204;SDS011;26963;42.666;23.366;2022-11-18T07:34:53;81.97;;;25.80;;
40204;SDS011;26963;42.666;23.366;2022-11-18T07:37:18;58.03;;;25.17;;
40204;SDS011;26963;42.666;23.366;2022-11-18T07:39:44;66.60;;;25.25;;
40204;SDS011;26963;42.666;23.366;2022-11-18T07:42:09;43.55;;;25.05;;
40204;SDS011;26963;42.666;23.366;2022-11-18T07:44:35;69.65;;;21.70;;
40204;SDS011;26963;42.666;23.366;2022-11-18T07:47:00;104.82;;;22.73;;
40204;SDS011;26963;42.666;23.366;2022-11-18T07:49:26;107.05;;;24.10;;
40204;SDS011;26963;42.666;23.366;2022-11-18T07:51:51;72.57;;;21.13;;
40204;SDS011;26963;42.666;23.366;2022-11-18T07:54:18;59.97;;;19.33;;
40204;SDS011;26963;42.666;23.366;2022-11-18T07:56:44;55.42;;;19.08;;
40204;SDS011;26963;42.666;23.366;2022-11-18T07:59:09;84.88;;;20.08;;
40204;SDS011;26963;42.666;23.366;2022-11-18T08:01:35;85.20;;;20.23;;
40204;SDS011;26963;42.666;23.366;2022-11-18T08:04:04;51.33;;;20.10;;
40204;SDS011;26963;42.666;23.366;2022-11-18T08:06:32;64.05;;;20.85;;
40204;SDS011;26963;42.666;23.366;2022-11-18T08:08:59;68.50;;;22.85;;
40204;SDS011;26963;42.666;23.366;2022-11-18T08:11:25;64.15;;;22.17;;
40204;SDS011;26963;42.666;23.366;2022-11-18T08:13:50;43.70;;;20.75;;
40204;SDS011;26963;42.666;23.366;2022-11-18T08:16:17;38.47;;;20.33;;
40204;SDS011;26963;42.666;23.366;2022-11-18T08:18:45;34.20;;;20.73;;
40204;SDS011;26963;42.666;23.366;2022-11-18T08:21:11;36.47;;;20.05;;
40204;SDS011;26963;42.666;23.366;2022-11-18T08:23:38;42.15;;;21.02;;
40204;SDS011;26963;42.666;23.366;2022-11-18T08:26:08;39.05;;;19.95;;
40204;SDS011;26963;42.666;23.366;2022-11-18T08:28:35;47.28;;;19.23;;
40204;SDS011;26963;42.666;23.366;2022-11-18T08:31:08;32.80;;;20.17;;
40204;SDS011;26963;42.666;23.366;2022-11-18T08:33:38;34.92;;;21.83;;
40204;SDS011;26963;42.666;23.366;2022-11-18T08:36:05;49.47;;;25.05;;
40204;SDS011;26963;42.666;23.366;2022-11-18T08:38:35;44.42;;;24.20;;
40204;SDS011;26963;42.666;23.366;2022-11-18T08:41:00;44.65;;;22.67;;
40204;SDS011;26963;42.666;23.366;2022-11-18T08:43:27;63.97;;;23.63;;
40204;SDS011;26963;42.666;23.366;2022-11-18T08:45:53;39.95;;;23.58;;
40204;SDS011;26963;42.666;23.366;2022-11-18T08:48:18;46.45;;;24.98;;
40204;SDS011;26963;42.666;23.366;2022-11-18T08:50:44;47.33;;;27.17;;
40204;SDS011;26963;42.666;23.366;2022-11-18T08:53:09;55.83;;;27.15;;
40204;SDS011;26963;42.666;23.366;2022-11-18T08:55:35;42.83;;;28.40;;
40204;SDS011;26963;42.666;23.366;2022-11-18T08:58:00;43.55;;;29.33;;
40204;SDS011;26963;42.666;23.366;2022-11-18T09:00:26;59.55;;;30.73;;
40204;SDS011;26963;42.666;23.366;2022-11-18T09:02:52;51.47;;;31.63;;
40204;SDS011;26963;42.666;23.366;2022-11-18T09:05:17;50.30;;;30.83;;
40204;SDS011;26963;42.666;23.366;2022-11-18T09:07:43;54.75;;;31.80;;
40204;SDS011;26963;42.666;23.366;2022-11-18T09:10:08;53.03;;;32.25;;
40204;SDS011;26963;42.666;23.366;2022-11-18T09:12:34;53.22;;;32.28;;
40204;SDS011;26963;42.666;23.366;2022-11-18T09:14:59;58.55;;;34.35;;
40204;SDS011;26963;42.666;23.366;2022-11-18T09:17:25;59.00;;;34.95;;
40204;SDS011;26963;42.666;23.366;2022-11-18T09:19:50;53.13;;;33.10;;
40204;SDS011;26963;42.666;23.366;2022-11-18T09:22:16;59.72;;;34.42;;
40204;SDS011;26963;42.666;23.366;2022-11-18T09:24:41;55.00;;;31.58;;
40204;SDS011;26963;42.666;23.366;2022-11-18T09:27:07;53.22;;;32.60;;
40204;SDS011;26963;42.666;23.366;2022-11-18T09:29:33;51.53;;;32.53;;
40204;SDS011;26963;42.666;23.366;2022-11-18T09:31:58;54.90;;;34.15;;
40204;SDS011;26963;42.666;23.366;2022-11-18T09:34:26;53.45;;;34.22;;
40204;SDS011;26963;42.666;23.366;2022-11-18T09:36:52;53.08;;;33.58;;
40204;SDS011;26963;42.666;23.366;2022-11-18T09:39:21;55.22;;;33.10;;
40204;SDS011;26963;42.666;23.366;2022-11-18T09:47:33;57.72;;;35.17;;
40204;SDS011;26963;42.666;23.366;2022-11-18T09:50:00;51.67;;;34.75;;
40204;SDS011;26963;42.666;23.366;2022-11-18T09:52:30;60.85;;;35.80;;
40204;SDS011;26963;42.666;23.366;2022-11-18T09:55:02;50.20;;;34.95;;
40204;SDS011;26963;42.666;23.366;2022-11-18T09:57:39;50.30;;;34.22;;
40204;SDS011;26963;42.666;23.366;2022-11-18T10:05:16;58.00;;;36.88;;
40204;SDS011;26963;42.666;23.366;2022-11-18T10:10:21;55.97;;;41.10;;
40204;SDS011;26963;42.666;23.366;2022-11-18T10:13:17;57.90;;;39.40;;
40204;SDS011;26963;42.666;23.366;2022-11-18T10:15:58;59.15;;;37.92;;
40204;SDS011;26963;42.666;23.366;2022-11-18T10:18:47;57.47;;;38.33;;
40204;SDS011;26963;42.666;23.366;2022-11-18T10:24:07;62.83;;;40.90;;
40204;SDS011;26963;42.666;23.366;2022-11-18T10:26:36;63.78;;;41.15;;
40204;SDS011;26963;42.666;23.366;2022-11-18T10:29:04;63.35;;;40.42;;
40204;SDS011;26963;42.666;23.366;2022-11-18T10:31:37;65.93;;;41.10;;
40204;SDS011;26963;42.666;23.366;2022-11-18T10:34:05;63.78;;;40.20;;
40204;SDS011;26963;42.666;23.366;2022-11-18T10:36:34;64.18;;;38.95;;
40204;SDS011;26963;42.666;23.366;2022-11-18T10:39:14;64.05;;;41.30;;
40204;SDS011;26963;42.666;23.366;2022-11-18T10:41:42;67.88;;;43.13;;
40204;SDS011;26963;42.666;23.366;2022-11-18T10:49:48;56.78;;;38.90;;
40204;SDS011;26963;42.666;23.366;2022-11-18T10:52:15;60.08;;;38.72;;
40204;SDS011;26963;42.666;23.366;2022-11-18T10:54:41;65.88;;;38.95;;
40204;SDS011;26963;42.666;23.366;2022-11-18T11:02:18;69.50;;;42.58;;
40204;SDS011;26963;42.666;23.366;2022-11-18T11:04:54;63.78;;;41.03;;
40204;SDS011;26963;42.666;23.366;2022-11-18T11:07:26;65.55;;;40.78;;
40204;SDS011;26963;42.666;23.366;2022-11-18T11:12:33;85.03;;;51.35;;
40204;SDS011;26963;42.666;23.366;2022-11-18T11:15:10;90.30;;;54.67;;
40204;SDS011;26963;42.666;23.366;2022-11-18T11:17:41;84.90;;;51.95;;
40204;SDS011;26963;42.666;23.366;2022-11-18T11:20:32;77.43;;;45.63;;
40204;SDS011;26963;42.666;23.366;2022-11-18T11:22:59;72.53;;;42.78;;
40204;SDS011;26963;42.666;23.366;2022-11-18T11:25:45;74.57;;;45.65;;
40204;SDS011;26963;42.666;23.366;2022-11-18T11:30:54;65.13;;;39.80;;
40204;SDS011;26963;42.666;23.366;2022-11-18T11:36:30;63.67;;;40.83;;
40204;SDS011;26963;42.666;23.366;2022-11-18T11:50:40;54.97;;;35.67;;
40204;SDS011;26963;42.666;23.366;2022-11-18T11:58:45;47.42;;;33.10;;
40204;SDS011;26963;42.666;23.366;2022-11-18T12:01:19;49.60;;;33.92;;
40204;SDS011;26963;42.666;23.366;2022-11-18T12:07:18;38.03;;;24.92;;
40204;SDS011;26963;42.666;23.366;2022-11-18T12:10:01;33.42;;;24.80;;
40204;SDS011;26963;42.666;23.366;2022-11-18T12:26:41;28.98;;;20.83;;
40204;SDS011;26963;42.666;23.366;2022-11-18T12:29:54;29.92;;;20.42;;
40204;SDS011;26963;42.666;23.366;2022-11-18T12:35:24;31.58;;;21.73;;
40204;SDS011;26963;42.666;23.366;2022-11-18T12:43:07;26.98;;;18.60;;
40204;SDS011;26963;42.666;23.366;2022-11-18T12:46:56;28.55;;;19.42;;
40204;SDS011;26963;42.666;23.366;2022-11-18T12:51:47;26.75;;;18.17;;
40204;SDS011;26963;42.666;23.366;2022-11-18T12:57:00;26.10;;;18.85;;
40204;SDS011;26963;42.666;23.366;2022-11-18T12:59:29;27.55;;;17.85;;
40204;SDS011;26963;42.666;23.366;2022-11-18T13:02:39;23.73;;;16.42;;
40204;SDS011;26963;42.666;23.366;2022-11-18T13:05:01;23.48;;;16.83;;
40204;SDS011;26963;42.666;23.366;2022-11-18T13:07:47;25.02;;;15.15;;
40204;SDS011;26963;42.666;23.366;2022-11-18T13:10:35;25.77;;;15.60;;
40204;SDS011;26963;42.666;23.366;2022-11-18T13:13:34;30.17;;;15.60;;
40204;SDS011;26963;42.666;23.366;2022-11-18T13:16:01;24.20;;;16.20;;
40204;SDS011;26963;42.666;23.366;2022-11-18T13:18:54;24.55;;;14.57;;
40204;SDS011;26963;42.666;23.366;2022-11-18T13:21:24;22.85;;;14.98;;
40204;SDS011;26963;42.666;23.366;2022-11-18T13:24:10;5.40;;;2.67;;
40204;SDS011;26963;42.666;23.366;2022-11-18T13:26:38;5.80;;;3.70;;
40204;SDS011;26963;42.666;23.366;2022-11-18T13:34:39;10.55;;;4.97;;
40204;SDS011;26963;42.666;23.366;2022-11-18T13:37:13;14.30;;;10.32;;
40204;SDS011;26963;42.666;23.366;2022-11-18T13:39:42;10.80;;;7.07;;
40204;SDS011;26963;42.666;23.366;2022-11-18T13:42:19;16.80;;;7.38;;
40204;SDS011;26963;42.666;23.366;2022-11-18T13:45:20;15.05;;;7.55;;
40204;SDS011;26963;42.666;23.366;2022-11-18T13:52:47;15.20;;;7.82;;
40204;SDS011;26963;42.666;23.366;2022-11-18T13:55:24;11.38;;;7.30;;
40204;SDS011;26963;42.666;23.366;2022-11-18T13:58:00;15.55;;;7.47;;
40204;SDS011;26963;42.666;23.366;2022-11-18T14:00:29;12.93;;;6.57;;
40204;SDS011;26963;42.666;23.366;2022-11-18T14:02:58;10.50;;;5.13;;
40204;SDS011;26963;42.666;23.366;2022-11-18T14:05:27;11.90;;;4.85;;
40204;SDS011;26963;42.666;23.366;2022-11-18T14:08:04;9.68;;;4.90;;
40204;SDS011;26963;42.666;23.366;2022-11-18T14:10:49;3.13;;;2.22;;
40204;SDS011;26963;42.666;23.366;2022-11-18T14:13:28;4.55;;;2.10;;
40204;SDS011;26963;42.666;23.366;2022-11-18T14:15:57;3.25;;;1.73;;
40204;SDS011;26963;42.666;23.366;2022-11-18T14:21:01;3.47;;;1.40;;
40204;SDS011;26963;42.666;23.366;2022-11-18T14:23:29;4.65;;;1.80;;
40204;SDS011;26963;42.666;23.366;2022-11-18T14:25:57;3.25;;;1.60;;
40204;SDS011;26963;42.666;23.366;2022-11-18T14:28:26;3.83;;;1.80;;
40204;SDS011;26963;42.666;23.366;2022-11-18T14:33:20;5.78;;;2.10;;
40204;SDS011;26963;42.666;23.366;2022-11-18T14:35:58;6.13;;;1.90;;
40204;SDS011;26963;42.666;23.366;2022-11-18T14:41:05;4.25;;;1.50;;
40204;SDS011;26963;42.666;23.366;2022-11-18T14:43:32;3.75;;;2.00;;
40204;SDS011;26963;42.666;23.366;2022-11-18T14:45:58;4.72;;;2.33;;
40204;SDS011;26963;42.666;23.366;2022-11-18T14:48:26;4.70;;;2.50;;
40204;SDS011;26963;42.666;23.366;2022-11-18T14:50:53;6.18;;;3.13;;
40204;SDS011;26963;42.666;23.366;2022-11-18T14:53:19;5.43;;;1.80;;
40204;SDS011;26963;42.666;23.366;2022-11-18T14:55:49;7.32;;;4.55;;
40204;SDS011;26963;42.666;23.366;2022-11-18T14:58:25;3.92;;;1.88;;
40204;SDS011;26963;42.666;23.366;2022-11-18T15:00:57;5.05;;;2.00;;
40204;SDS011;26963;42.666;23.366;2022-11-18T15:03:22;9.48;;;5.30;;
40204;SDS011;26963;42.666;23.366;2022-11-18T15:05:58;9.18;;;5.05;;
40204;SDS011;26963;42.666;23.366;2022-11-18T15:08:25;15.48;;;7.00;;
40204;SDS011;26963;42.666;23.366;2022-11-18T15:10:50;13.98;;;8.10;;
40204;SDS011;26963;42.666;23.366;2022-11-18T15:13:16;13.65;;;7.40;;
40204;SDS011;26963;42.666;23.366;2022-11-18T15:15:41;11.98;;;6.90;;
40204;SDS011;26963;42.666;23.366;2022-11-18T15:18:07;5.57;;;2.83;;
40204;SDS011;26963;42.666;23.366;2022-11-18T15:20:33;3.58;;;2.10;;
40204;SDS011;26963;42.666;23.366;2022-11-18T15:22:58;4.78;;;1.75;;
40204;SDS011;26963;42.666;23.366;2022-11-18T15:25:26;4.00;;;2.40;;
40204;SDS011;26963;42.666;23.366;2022-11-18T15:27:52;4.80;;;2.20;;
40204;SDS011;26963;42.666;23.366;2022-11-18T15:30:18;6.75;;;3.28;;
40204;SDS011;26963;42.666;23.366;2022-11-18T15:32:43;5.68;;;2.00;;
40204;SDS011;26963;42.666;23.366;2022-11-18T15:35:10;3.17;;;1.80;;
40204;SDS011;26963;42.666;23.366;2022-11-18T15:37:36;3.33;;;1.50;;
40204;SDS011;26963;42.666;23.366;2022-11-18T15:40:02;4.55;;;1.67;;
40204;SDS011;26963;42.666;23.366;2022-11-18T15:42:28;3.33;;;1.85;;
40204;SDS011;26963;42.666;23.366;2022-11-18T15:44:53;2.97;;;1.63;;
40204;SDS011;26963;42.666;23.366;2022-11-18T15:47:19;3.28;;;2.05;;
40204;SDS011;26963;42.666;23.366;2022-11-18T15:49:44;5.15;;;2.20;;
40204;SDS011;26963;42.666;23.366;2022-11-18T15:52:10;2.30;;;1.52;;
40204;SDS011;26963;42.666;23.366;2022-11-18T15:54:36;4.85;;;1.77;;
40204;SDS011;26963;42.666;23.366;2022-11-18T15:57:02;4.38;;;1.92;;
40204;SDS011;26963;42.666;23.366;2022-11-18T15:59:28;3.72;;;2.22;;
40204;SDS011;26963;42.666;23.366;2022-11-18T16:01:54;5.38;;;3.50;;
40204;SDS011;26963;42.666;23.366;2022-11-18T16:04:20;3.88;;;2.70;;
40204;SDS011;26963;42.666;23.366;2022-11-18T16:06:46;9.20;;;3.58;;
40204;SDS011;26963;42.666;23.366;2022-11-18T16:09:13;6.75;;;4.18;;
40204;SDS011;26963;42.666;23.366;2022-11-18T16:11:39;9.73;;;7.00;;
40204;SDS011;26963;42.666;23.366;2022-11-18T16:14:24;11.35;;;4.88;;
40204;SDS011;26963;42.666;23.366;2022-11-18T16:16:51;5.15;;;3.50;;
40204;SDS011;26963;42.666;23.366;2022-11-18T16:19:19;5.47;;;2.90;;
40204;SDS011;26963;42.666;23.366;2022-11-18T16:21:47;5.47;;;2.40;;
40204;SDS011;26963;42.666;23.366;2022-11-18T16:24:16;4.32;;;2.47;;
40204;SDS011;26963;42.666;23.366;2022-11-18T16:26:43;6.03;;;3.08;;
40204;SDS011;26963;42.666;23.366;2022-11-18T16:29:09;6.20;;;3.00;;
40204;SDS011;26963;42.666;23.366;2022-11-18T16:31:36;6.03;;;3.05;;
40204;SDS011;26963;42.666;23.366;2022-11-18T16:34:09;6.97;;;3.10;;
40204;SDS011;26963;42.666;23.366;2022-11-18T16:36:41;5.22;;;3.28;;
40204;SDS011;26963;42.666;23.366;2022-11-18T16:39:09;5.45;;;3.05;;
40204;SDS011;26963;42.666;23.366;2022-11-18T16:41:37;3.33;;;1.80;;
40204;SDS011;26963;42.666;23.366;2022-11-18T16:44:05;4.63;;;2.13;;
40204;SDS011;26963;42.666;23.366;2022-11-18T16:46:36;8.30;;;2.60;;
40204;SDS011;26963;42.666;23.366;2022-11-18T16:49:03;5.07;;;2.63;;
40204;SDS011;26963;42.666;23.366;2022-11-18T16:51:30;6.95;;;3.40;;
40204;SDS011;26963;42.666;23.366;2022-11-18T16:53:59;6.32;;;3.92;;
40204;SDS011;26963;42.666;23.366;2022-11-18T16:56:29;7.57;;;3.20;;